Time;durP1;ratioP1;P1;durP2;ratioP2;P2;SDS_P1;SDS_P2;PMS_P1;PMS_P2;Temp;Humidity;BMP_temperature;BMP_pressure;BME280_temperature;BME280_humidity;BME280_pressure;Samples;Min_cycle;Max_cycle;Signal;HPM_P1;HPM_P2
2023/08/10 06:46:25;;;;;;;2.30;2.10;;;;;;;;;;6161948;22;1281388;-88
2023/08/10 06:48:53;;;;;;;2.78;2.00;;;;;;;;;;6193953;23;20521;-90
2023/08/10 06:51:20;;;;;;;2.60;1.98;;;;;;;;;;6193636;23;20166;-91
2023/08/10 06:53:48;;;;;;;3.10;2.88;;;;;;;;;;6193902;23;20170;-92
2023/08/10 06:56:17;;;;;;;2.38;2.17;;;;;;;;;;6193456;23;20174;-92
2023/08/10 06:58:44;;;;;;;4.50;2.70;;;;;;;;;;6193405;23;20683;-92
2023/08/10 07:01:12;;;;;;;4.72;2.25;;;;;;;;;;6193566;23;20212;-92
2023/08/10 07:03:42;;;;;;;2.55;1.70;;;;;;;;;;6194040;23;20555;-92
2023/08/10 07:06:09;;;;;;;2.40;2.20;;;;;;;;;;6200334;23;20556;-93
2023/08/10 07:08:37;;;;;;;3.30;2.92;;;;;;;;;;6201269;23;20538;-93
2023/08/10 07:11:06;;;;;;;3.17;2.85;;;;;;;;;;6200318;23;20166;-93
2023/08/10 07:13:34;;;;;;;2.40;2.20;;;;;;;;;;6199825;23;20173;-93
2023/08/10 07:16:01;;;;;;;3.65;2.70;;;;;;;;;;6202929;23;20228;-92
2023/08/10 07:18:30;;;;;;;2.45;2.25;;;;;;;;;;6207776;23;20210;-93
2023/08/10 07:21:01;;;;;;;3.58;2.65;;;;;;;;;;6202073;23;20242;-93
2023/08/10 07:23:30;;;;;;;3.47;2.55;;;;;;;;;;6197007;23;20605;-91
2023/08/10 07:25:59;;;;;;;2.50;2.30;;;;;;;;;;6197483;23;20202;-93
2023/08/10 07:28:27;;;;;;;6.05;5.47;;;;;;;;;;6204924;23;20249;-93
2023/08/10 07:30:55;;;;;;;3.70;3.08;;;;;;;;;;6192943;23;20177;-93
2023/08/10 07:33:23;;;;;;;3.13;2.83;;;;;;;;;;6191992;23;20175;-93
2023/08/10 07:35:51;;;;;;;2.60;2.40;;;;;;;;;;6189751;23;20201;-92
2023/08/10 07:38:20;;;;;;;3.65;3.35;;;;;;;;;;6188126;23;20195;-92
2023/08/10 07:40:48;;;;;;;2.97;2.30;;;;;;;;;;6187292;23;20230;-92
2023/08/10 07:43:15;;;;;;;2.10;1.80;;;;;;;;;;6188194;23;20180;-93
2023/08/10 07:45:43;;;;;;;4.22;2.72;;;;;;;;;;6197514;23;20193;-92
2023/08/10 07:48:11;;;;;;;2.53;2.33;;;;;;;;;;6216727;23;20306;-92
2023/08/10 07:50:38;;;;;;;6.07;2.60;;;;;;;;;;6217090;23;20177;-92
2023/08/10 07:53:07;;;;;;;2.40;2.20;;;;;;;;;;6217223;23;20193;-93
2023/08/10 07:55:37;;;;;;;3.17;2.08;;;;;;;;;;6217264;23;20506;-94
2023/08/10 07:58:05;;;;;;;2.72;2.30;;;;;;;;;;6216899;23;20169;-92
2023/08/10 08:00:33;;;;;;;2.15;2.05;;;;;;;;;;6217150;23;20269;-92
2023/08/10 08:03:00;;;;;;;2.72;1.92;;;;;;;;;;6216841;23;20169;-92
2023/08/10 08:05:29;;;;;;;2.35;1.92;;;;;;;;;;6217596;23;20170;-91
2023/08/10 08:07:56;;;;;;;2.20;1.92;;;;;;;;;;6216328;23;20170;-91
2023/08/10 08:10:24;;;;;;;2.08;1.88;;;;;;;;;;6216500;23;20640;-92
2023/08/10 08:12:53;;;;;;;3.10;2.03;;;;;;;;;;6216953;23;20177;-91
2023/08/10 08:15:21;;;;;;;1.75;1.63;;;;;;;;;;6215955;23;20172;-91
2023/08/10 08:18:43;;;;;;;3.53;3.22;;;;;;;;;;6215860;23;20681;-90
2023/08/10 08:21:11;;;;;;;4.85;4.35;;;;;;;;;;6215670;23;20718;-91
2023/08/10 08:23:39;;;;;;;4.18;3.03;;;;;;;;;;6215867;23;20245;-93
2023/08/10 08:26:07;;;;;;;2.65;2.17;;;;;;;;;;6215644;23;20609;-91
2023/08/10 08:28:36;;;;;;;4.63;4.20;;;;;;;;;;6215739;23;20214;-91
2023/08/10 08:31:04;;;;;;;2.63;2.42;;;;;;;;;;6216392;23;20216;-91
2023/08/10 08:33:31;;;;;;;2.50;2.30;;;;;;;;;;6215926;23;20202;-93
2023/08/10 08:35:59;;;;;;;1.90;1.67;;;;;;;;;;6216019;23;20244;-90
2023/08/10 08:38:27;;;;;;;2.17;1.98;;;;;;;;;;6215574;23;20196;-92
2023/08/10 08:40:56;;;;;;;1.73;1.45;;;;;;;;;;6215565;23;20190;-92
2023/08/10 08:43:24;;;;;;;1.73;1.63;;;;;;;;;;6215284;23;20204;-92
2023/08/10 08:45:53;;;;;;;4.70;1.80;;;;;;;;;;6215666;23;20228;-91
2023/08/10 08:48:20;;;;;;;9.00;2.22;;;;;;;;;;6215738;23;20209;-91
2023/08/10 08:50:48;;;;;;;3.13;1.60;;;;;;;;;;6215798;23;20186;-91
2023/08/10 08:53:16;;;;;;;2.28;1.70;;;;;;;;;;6216059;23;20301;-92
2023/08/10 08:55:46;;;;;;;2.35;1.58;;;;;;;;;;6216357;23;20236;-90
2023/08/10 08:58:14;;;;;;;2.95;1.60;;;;;;;;;;6215845;23;20180;-91
2023/08/10 09:00:42;;;;;;;1.95;1.40;;;;;;;;;;6216985;23;20190;-90
2023/08/10 09:03:11;;;;;;;1.95;1.08;;;;;;;;;;6216704;23;20194;-91
2023/08/10 09:05:39;;;;;;;1.42;1.33;;;;;;;;;;6216635;23;20206;-92
2023/08/10 09:08:07;;;;;;;1.55;1.45;;;;;;;;;;6215773;23;20670;-92
2023/08/10 09:10:35;;;;;;;3.05;1.98;;;;;;;;;;6215593;23;20170;-92
2023/08/10 09:13:12;;;;;;;1.90;1.75;;;;;;;;;;6215571;23;20197;-92
2023/08/10 09:15:39;;;;;;;2.03;1.83;;;;;;;;;;6215844;23;20149;-92
2023/08/10 09:18:07;;;;;;;1.67;1.58;;;;;;;;;;6215590;23;20270;-93
2023/08/10 09:20:36;;;;;;;4.25;3.53;;;;;;;;;;6215817;23;20193;-92
2023/08/10 09:23:04;;;;;;;3.38;2.90;;;;;;;;;;6215511;23;20170;-92
2023/08/10 09:25:37;;;;;;;11.27;9.18;;;;;;;;;;6215949;23;20178;-92
2023/08/10 09:28:09;;;;;;;6.72;5.82;;;;;;;;;;6216564;23;20174;-93
2023/08/10 09:30:37;;;;;;;3.97;3.20;;;;;;;;;;6216112;23;20158;-93
2023/08/10 09:33:05;;;;;;;2.28;2.08;;;;;;;;;;6215592;23;20240;-91
2023/08/10 09:35:34;;;;;;;2.30;2.10;;;;;;;;;;6215423;23;20182;-91
2023/08/10 09:38:03;;;;;;;1.40;1.30;;;;;;;;;;6215555;23;20556;-93
2023/08/10 09:40:31;;;;;;;2.20;1.85;;;;;;;;;;6215566;23;20253;-92
2023/08/10 09:42:58;;;;;;;2.72;1.40;;;;;;;;;;6215317;23;20692;-92
2023/08/10 09:45:27;;;;;;;3.22;2.47;;;;;;;;;;6214898;23;20201;-91
2023/08/10 09:47:55;;;;;;;4.68;3.30;;;;;;;;;;6215254;23;20173;-91
2023/08/10 09:50:23;;;;;;;4.40;2.28;;;;;;;;;;6215356;23;20254;-92
2023/08/10 09:52:53;;;;;;;5.47;4.97;;;;;;;;;;6215770;23;20234;-92
2023/08/10 09:55:20;;;;;;;4.80;2.38;;;;;;;;;;6215998;23;20170;-91
2023/08/10 09:57:49;;;;;;;3.45;1.80;;;;;;;;;;6215163;23;20196;-92
2023/08/10 10:00:19;;;;;;;1.83;1.73;;;;;;;;;;6214648;23;20214;-92
2023/08/10 10:02:47;;;;;;;1.30;1.20;;;;;;;;;;6215309;23;20223;-91
2023/08/10 10:05:17;;;;;;;1.65;1.55;;;;;;;;;;6215215;23;20180;-91
2023/08/10 10:07:46;;;;;;;9.27;2.70;;;;;;;;;;6215017;23;20196;-92
2023/08/10 10:10:16;;;;;;;3.63;2.10;;;;;;;;;;6214981;23;20645;-93
2023/08/10 10:12:46;;;;;;;3.03;2.00;;;;;;;;;;6215284;23;20671;-91
2023/08/10 10:15:14;;;;;;;2.35;1.83;;;;;;;;;;6215520;23;20189;-93
2023/08/10 10:17:41;;;;;;;3.80;2.45;;;;;;;;;;6215502;23;20220;-93
2023/08/10 10:20:11;;;;;;;2.17;1.75;;;;;;;;;;6215196;23;20186;-93
2023/08/10 10:22:39;;;;;;;11.60;3.13;;;;;;;;;;6215378;23;20232;-92
2023/08/10 10:25:15;;;;;;;3.17;1.63;;;;;;;;;;6214930;23;20174;-92
2023/08/10 10:27:48;;;;;;;2.25;2.05;;;;;;;;;;6215468;23;20224;-93
2023/08/10 10:30:17;;;;;;;2.55;2.13;;;;;;;;;;6216382;23;20193;-93
2023/08/10 10:32:48;;;;;;;3.75;2.80;;;;;;;;;;6215191;23;20194;-92
2023/08/10 10:35:24;;;;;;;2.97;1.70;;;;;;;;;;6234054;23;20164;-96
2023/08/10 10:37:59;;;;;;;2.65;2.45;;;;;;;;;;6237976;23;20162;-93
2023/08/10 10:40:28;;;;;;;2.60;1.75;;;;;;;;;;6240971;23;20189;-94
2023/08/10 10:43:14;;;;;;;5.57;4.07;;;;;;;;;;6241061;23;20158;-95
2023/08/10 10:45:43;;;;;;;2.67;2.47;;;;;;;;;;6216035;23;20182;-96
2023/08/10 10:48:12;;;;;;;2.88;1.95;;;;;;;;;;6212604;23;20162;-96
2023/08/10 10:50:40;;;;;;;11.27;10.05;;;;;;;;;;6212144;23;20178;-96
2023/08/10 10:53:11;;;;;;;3.55;3.25;;;;;;;;;;6212495;23;20154;-96
2023/08/10 11:00:46;;;;;;;1.90;1.80;;;;;;;;;;6211165;23;20185;-95
2023/08/10 11:03:22;;;;;;;2.53;1.85;;;;;;;;;;6212146;23;20151;-96
2023/08/10 11:05:50;;;;;;;1.60;1.50;;;;;;;;;;6204198;23;20202;-86
2023/08/10 11:08:18;;;;;;;1.33;1.33;;;;;;;;;;6189440;23;20198;-85
2023/08/10 11:10:46;;;;;;;1.83;1.63;;;;;;;;;;6188950;23;20625;-84
2023/08/10 11:13:13;;;;;;;2.35;1.90;;;;;;;;;;6190150;23;20174;-85
2023/08/10 11:16:37;;;;;;;1.40;1.30;;;;;;;;;;6194425;23;20170;-92
2023/08/10 11:19:13;;;;;;;2.25;1.92;;;;;;;;;;6195302;23;20205;-89
2023/08/10 11:21:51;;;;;;;3.83;2.30;;;;;;;;;;6195490;23;20185;-93
2023/08/10 11:24:18;;;;;;;2.22;2.00;;;;;;;;;;6199202;23;20170;-90
2023/08/10 11:26:46;;;;;;;2.03;1.80;;;;;;;;;;6186601;23;20189;-89
2023/08/10 11:29:14;;;;;;;3.25;2.72;;;;;;;;;;6186346;23;20195;-91
2023/08/10 11:31:42;;;;;;;5.05;4.55;;;;;;;;;;6186530;23;20232;-90
2023/08/10 11:34:25;;;;;;;2.92;2.70;;;;;;;;;;6187991;23;20181;-92
2023/08/10 11:36:55;;;;;;;2.67;2.28;;;;;;;;;;6188744;23;20189;-91
2023/08/10 11:39:23;;;;;;;1.70;1.60;;;;;;;;;;6186613;23;20218;-90
2023/08/10 11:41:51;;;;;;;1.80;1.48;;;;;;;;;;6186614;23;20485;-89
2023/08/10 11:44:27;;;;;;;2.03;1.88;;;;;;;;;;6186705;23;20174;-88
2023/08/10 11:46:57;;;;;;;3.25;1.73;;;;;;;;;;6188216;23;20172;-87
2023/08/10 11:49:28;;;;;;;3.10;2.33;;;;;;;;;;6186988;23;20209;-87
2023/08/10 11:51:59;;;;;;;1.50;1.40;;;;;;;;;;6187825;23;20194;-91
2023/08/10 11:54:31;;;;;;;2.30;2.10;;;;;;;;;;6191039;23;20164;-91
2023/08/10 11:57:00;;;;;;;1.90;1.70;;;;;;;;;;6189697;23;20614;-90
2023/08/10 11:59:36;;;;;;;2.22;1.77;;;;;;;;;;6184753;23;20199;-90
2023/08/10 12:02:04;;;;;;;1.88;1.60;;;;;;;;;;6186134;23;20155;-89
2023/08/10 12:04:34;;;;;;;1.73;1.63;;;;;;;;;;6186934;23;20573;-91
2023/08/10 12:07:01;;;;;;;1.42;1.35;;;;;;;;;;6208332;23;20280;-90
2023/08/10 12:09:30;;;;;;;2.03;1.83;;;;;;;;;;6216231;23;20564;-89
2023/08/10 12:11:59;;;;;;;2.42;1.80;;;;;;;;;;6215790;23;20190;-89
2023/08/10 12:14:28;;;;;;;1.73;1.58;;;;;;;;;;6216204;23;20181;-90
2023/08/10 12:16:55;;;;;;;2.22;2.03;;;;;;;;;;6215650;23;20178;-90
2023/08/10 12:19:23;;;;;;;2.20;1.80;;;;;;;;;;6216285;23;20221;-90
2023/08/10 12:21:52;;;;;;;1.45;1.35;;;;;;;;;;6215939;23;20190;-89
2023/08/10 12:24:20;;;;;;;2.03;1.58;;;;;;;;;;6216511;23;20244;-91
2023/08/10 12:26:48;;;;;;;1.83;1.52;;;;;;;;;;6216431;23;20181;-90
2023/08/10 12:29:17;;;;;;;2.65;2.08;;;;;;;;;;6215872;23;20205;-85
2023/08/10 12:31:44;;;;;;;3.10;1.40;;;;;;;;;;6215184;23;20217;-84
2023/08/10 12:34:12;;;;;;;1.30;1.20;;;;;;;;;;6215573;23;20212;-83
2023/08/10 12:36:39;;;;;;;1.67;1.30;;;;;;;;;;6214993;23;20184;-85
2023/08/10 12:39:09;;;;;;;1.30;1.20;;;;;;;;;;6216059;23;20194;-85
2023/08/10 12:41:37;;;;;;;2.28;1.42;;;;;;;;;;6215442;23;20228;-85
2023/08/10 12:44:05;;;;;;;1.90;1.40;;;;;;;;;;6215656;23;20205;-86
2023/08/10 12:46:32;;;;;;;1.60;1.50;;;;;;;;;;6215470;23;20220;-85
2023/08/10 12:49:00;;;;;;;1.40;1.30;;;;;;;;;;6215838;23;20216;-84
2023/08/10 12:51:27;;;;;;;2.97;2.45;;;;;;;;;;6214598;23;20253;-85
2023/08/10 12:53:55;;;;;;;2.10;2.00;;;;;;;;;;6215106;23;20225;-84
2023/08/10 12:56:24;;;;;;;2.55;1.77;;;;;;;;;;6215396;23;20212;-85
2023/08/10 12:58:51;;;;;;;2.63;2.42;;;;;;;;;;6215092;23;20273;-84
2023/08/10 13:01:18;;;;;;;2.75;2.55;;;;;;;;;;6214875;23;20260;-84
2023/08/10 13:03:46;;;;;;;3.00;1.95;;;;;;;;;;6214721;23;20262;-84
2023/08/10 13:06:13;;;;;;;1.85;1.73;;;;;;;;;;6214693;23;20294;-85
2023/08/10 13:08:41;;;;;;;2.33;1.73;;;;;;;;;;6214869;23;20744;-86
2023/08/10 13:11:09;;;;;;;1.70;1.45;;;;;;;;;;6215116;23;20632;-85
2023/08/10 13:13:54;;;;;;;1.80;1.70;;;;;;;;;;6216778;23;20201;-91
2023/08/10 13:16:22;;;;;;;1.95;1.58;;;;;;;;;;6216539;23;20200;-92
2023/08/10 13:18:50;;;;;;;3.15;2.03;;;;;;;;;;6219531;23;20196;-91
2023/08/10 13:21:18;;;;;;;3.28;1.50;;;;;;;;;;6216800;23;20252;-89
2023/08/10 13:23:45;;;;;;;1.40;1.30;;;;;;;;;;6215692;23;20209;-92
2023/08/10 13:26:13;;;;;;;3.03;2.00;;;;;;;;;;6216899;23;20173;-91
2023/08/10 13:28:42;;;;;;;2.67;1.42;;;;;;;;;;6225539;23;20200;-92
2023/08/10 13:31:09;;;;;;;1.42;1.33;;;;;;;;;;6228300;23;20227;-91
2023/08/10 13:33:37;;;;;;;3.22;1.25;;;;;;;;;;6231350;23;20201;-93
2023/08/10 13:36:05;;;;;;;1.27;1.20;;;;;;;;;;6230839;23;20170;-93
2023/08/10 13:38:32;;;;;;;1.30;1.05;;;;;;;;;;6225913;23;20247;-94
2023/08/10 13:41:00;;;;;;;1.90;1.80;;;;;;;;;;6225714;23;20169;-92
2023/08/10 13:43:27;;;;;;;1.67;1.52;;;;;;;;;;6232392;23;20173;-92
2023/08/10 13:45:56;;;;;;;1.60;1.50;;;;;;;;;;6234140;23;20154;-92
2023/08/10 13:48:24;;;;;;;1.90;1.30;;;;;;;;;;6233835;23;20193;-93
2023/08/10 13:50:53;;;;;;;1.75;1.35;;;;;;;;;;6234314;23;20164;-92
2023/08/10 13:53:21;;;;;;;1.73;1.60;;;;;;;;;;6231900;23;20193;-92
2023/08/10 13:55:48;;;;;;;1.50;1.40;;;;;;;;;;6225773;23;20174;-93
2023/08/10 13:58:16;;;;;;;2.80;1.80;;;;;;;;;;6225616;23;20188;-92
2023/08/10 14:00:43;;;;;;;2.22;1.17;;;;;;;;;;6228953;23;20177;-92
2023/08/10 14:03:12;;;;;;;2.13;1.83;;;;;;;;;;6228869;23;20181;-93
2023/08/10 14:05:40;;;;;;;1.08;1.08;;;;;;;;;;6226460;23;20178;-92
2023/08/10 14:08:08;;;;;;;2.25;1.50;;;;;;;;;;6227399;23;20616;-92
2023/08/10 14:10:36;;;;;;;1.33;1.20;;;;;;;;;;6221509;23;20687;-91
2023/08/10 14:13:03;;;;;;;5.03;1.40;;;;;;;;;;6226693;23;20209;-92
2023/08/10 14:15:31;;;;;;;1.60;1.25;;;;;;;;;;6227095;23;20169;-91
2023/08/10 14:17:58;;;;;;;1.50;1.40;;;;;;;;;;6222940;23;20166;-91
2023/08/10 14:20:27;;;;;;;1.75;1.48;;;;;;;;;;6222649;23;20232;-91
2023/08/10 14:22:55;;;;;;;1.40;1.30;;;;;;;;;;6223347;23;20173;-92
2023/08/10 14:25:23;;;;;;;1.20;1.10;;;;;;;;;;6219540;23;20170;-93
2023/08/10 14:27:51;;;;;;;1.27;1.25;;;;;;;;;;6221645;23;20181;-92
2023/08/10 14:30:18;;;;;;;1.48;1.38;;;;;;;;;;6220053;23;20197;-92
2023/08/10 14:32:46;;;;;;;1.50;1.42;;;;;;;;;;6220818;23;20170;-92
2023/08/10 14:35:13;;;;;;;1.42;1.30;;;;;;;;;;6221750;23;20549;-92
2023/08/10 14:37:42;;;;;;;1.77;1.40;;;;;;;;;;6221794;23;20170;-91
2023/08/10 14:40:11;;;;;;;1.55;1.45;;;;;;;;;;6222704;23;20193;-91
2023/08/10 14:42:39;;;;;;;1.52;1.40;;;;;;;;;;6222458;23;20201;-91
2023/08/10 14:45:08;;;;;;;2.22;1.20;;;;;;;;;;6222202;23;20215;-91
2023/08/10 14:47:37;;;;;;;1.15;1.10;;;;;;;;;;6224614;23;20179;-91
2023/08/10 14:50:06;;;;;;;2.83;1.60;;;;;;;;;;6224864;23;20199;-92
2023/08/10 14:52:33;;;;;;;2.42;1.40;;;;;;;;;;6220813;23;20174;-91
2023/08/10 14:55:03;;;;;;;1.40;1.30;;;;;;;;;;6225149;23;20213;-91
2023/08/10 14:57:30;;;;;;;1.10;1.10;;;;;;;;;;6225300;23;20174;-91
2023/08/10 14:59:58;;;;;;;3.63;1.75;;;;;;;;;;6225251;23;20194;-91
2023/08/10 15:02:26;;;;;;;1.50;1.40;;;;;;;;;;6222676;23;20169;-91
2023/08/10 15:04:53;;;;;;;1.30;1.20;;;;;;;;;;6221354;23;20205;-91
2023/08/10 15:07:21;;;;;;;1.33;1.23;;;;;;;;;;6221502;23;20201;-92
2023/08/10 15:09:49;;;;;;;2.58;1.40;;;;;;;;;;6223479;23;20273;-92
2023/08/10 15:12:18;;;;;;;1.63;1.52;;;;;;;;;;6223049;23;20177;-91
2023/08/10 15:14:45;;;;;;;1.55;1.30;;;;;;;;;;6223136;23;20352;-92
2023/08/10 15:17:13;;;;;;;0.85;0.85;;;;;;;;;;6221655;23;20170;-92
2023/08/10 15:19:40;;;;;;;1.45;1.33;;;;;;;;;;6221049;23;20201;-90
2023/08/10 15:22:08;;;;;;;1.40;1.30;;;;;;;;;;6222074;23;20173;-91
2023/08/10 15:24:35;;;;;;;1.67;1.35;;;;;;;;;;6220283;23;20177;-91
2023/08/10 15:27:06;;;;;;;1.42;1.30;;;;;;;;;;6221071;23;20170;-92
2023/08/10 15:29:35;;;;;;;1.00;1.00;;;;;;;;;;6221949;23;20190;-92
2023/08/10 15:32:02;;;;;;;1.25;1.10;;;;;;;;;;6222518;23;20169;-92
2023/08/10 15:34:31;;;;;;;1.40;1.30;;;;;;;;;;6221204;23;20210;-91
2023/08/10 15:36:59;;;;;;;1.20;1.10;;;;;;;;;;6220530;23;20169;-92
2023/08/10 15:39:27;;;;;;;1.35;1.25;;;;;;;;;;6220508;23;20209;-91
2023/08/10 15:41:55;;;;;;;1.52;1.42;;;;;;;;;;6220813;23;20232;-91
2023/08/10 15:44:22;;;;;;;1.88;1.20;;;;;;;;;;6219854;23;20605;-91
2023/08/10 15:46:51;;;;;;;1.58;1.48;;;;;;;;;;6221506;23;20457;-91
2023/08/10 15:49:19;;;;;;;2.95;2.47;;;;;;;;;;6221085;23;20190;-93
2023/08/10 15:51:46;;;;;;;1.40;1.30;;;;;;;;;;6222591;23;20247;-92
2023/08/10 15:54:14;;;;;;;1.30;1.20;;;;;;;;;;6220302;23;20248;-93
2023/08/10 15:56:41;;;;;;;1.27;1.20;;;;;;;;;;6220876;23;20177;-93
2023/08/10 15:59:09;;;;;;;2.38;2.17;;;;;;;;;;6221116;23;20200;-95
2023/08/10 16:01:36;;;;;;;1.40;1.30;;;;;;;;;;6223029;23;20177;-94
2023/08/10 16:04:06;;;;;;;1.95;1.30;;;;;;;;;;6221744;23;20180;-93
2023/08/10 16:06:35;;;;;;;1.55;1.45;;;;;;;;;;6222627;23;20178;-93
2023/08/10 16:09:03;;;;;;;1.40;1.30;;;;;;;;;;6222645;23;20201;-93
2023/08/10 16:11:30;;;;;;;2.45;1.85;;;;;;;;;;6222249;23;20202;-93
2023/08/10 16:13:58;;;;;;;1.30;1.20;;;;;;;;;;6222067;23;20194;-94
2023/08/10 16:16:26;;;;;;;1.30;1.20;;;;;;;;;;6221156;23;20177;-93
2023/08/10 16:18:53;;;;;;;1.30;1.20;;;;;;;;;;6221722;23;20197;-94
2023/08/10 16:21:22;;;;;;;1.15;1.15;;;;;;;;;;6221090;23;20170;-94
2023/08/10 16:23:50;;;;;;;1.27;1.17;;;;;;;;;;6222772;23;20177;-93
2023/08/10 16:26:17;;;;;;;1.60;1.15;;;;;;;;;;6219939;23;20181;-93
2023/08/10 16:28:45;;;;;;;1.25;1.17;;;;;;;;;;6217191;23;20244;-93
2023/08/10 16:31:12;;;;;;;0.98;0.98;;;;;;;;;;6217171;23;20174;-93
2023/08/10 16:33:40;;;;;;;1.30;1.20;;;;;;;;;;6217004;23;20197;-92
2023/08/10 16:36:08;;;;;;;1.73;1.40;;;;;;;;;;6216013;23;20568;-91
2023/08/10 16:38:37;;;;;;;1.90;1.73;;;;;;;;;;6216504;23;20225;-91
2023/08/10 16:41:04;;;;;;;1.45;1.35;;;;;;;;;;6215991;23;20169;-91
2023/08/10 16:43:32;;;;;;;1.63;1.20;;;;;;;;;;6215799;23;20193;-91
2023/08/10 16:46:00;;;;;;;1.20;1.10;;;;;;;;;;6215809;23;20636;-91
2023/08/10 16:48:27;;;;;;;1.90;1.15;;;;;;;;;;6215652;23;20228;-91
2023/08/10 16:50:55;;;;;;;1.83;1.73;;;;;;;;;;6216067;23;20205;-91
2023/08/10 16:53:23;;;;;;;1.27;1.20;;;;;;;;;;6215709;23;20221;-91
2023/08/10 16:55:52;;;;;;;2.55;2.20;;;;;;;;;;6215595;23;20576;-91
2023/08/10 16:58:20;;;;;;;1.40;1.30;;;;;;;;;;6215530;23;20197;-92
2023/08/10 17:00:47;;;;;;;1.30;1.20;;;;;;;;;;6215875;23;20551;-91
2023/08/10 17:03:15;;;;;;;3.58;1.58;;;;;;;;;;6215313;23;20244;-91
2023/08/10 17:05:42;;;;;;;1.27;1.17;;;;;;;;;;6215697;23;20216;-91
2023/08/10 17:08:10;;;;;;;2.17;1.30;;;;;;;;;;6215805;23;20601;-91
2023/08/10 17:10:38;;;;;;;1.25;1.15;;;;;;;;;;6215825;23;20170;-92
2023/08/10 17:13:07;;;;;;;1.88;1.10;;;;;;;;;;6215570;23;20522;-89
2023/08/10 17:15:35;;;;;;;1.27;1.17;;;;;;;;;;6215788;23;20571;-92
2023/08/10 17:18:02;;;;;;;3.00;1.60;;;;;;;;;;6215658;23;20177;-91
2023/08/10 17:20:30;;;;;;;2.28;1.40;;;;;;;;;;6215615;23;20166;-90
2023/08/10 17:22:58;;;;;;;1.35;1.25;;;;;;;;;;6215390;23;20166;-91
2023/08/10 17:25:25;;;;;;;1.30;1.27;;;;;;;;;;6215322;23;20172;-91
2023/08/10 17:27:53;;;;;;;1.17;1.08;;;;;;;;;;6215540;23;20546;-91
2023/08/10 17:30:22;;;;;;;1.40;1.10;;;;;;;;;;6215455;23;20559;-90
2023/08/10 17:32:50;;;;;;;3.50;1.00;;;;;;;;;;6215531;23;20203;-91
2023/08/10 17:35:17;;;;;;;1.13;1.00;;;;;;;;;;6215258;23;20535;-91
2023/08/10 17:37:45;;;;;;;1.35;1.00;;;;;;;;;;6215449;23;20224;-91
2023/08/10 17:40:13;;;;;;;1.13;0.98;;;;;;;;;;6215382;23;20225;-90
2023/08/10 17:42:40;;;;;;;1.05;0.90;;;;;;;;;;6215293;23;20178;-90
2023/08/10 17:45:09;;;;;;;1.58;1.48;;;;;;;;;;6215296;23;20589;-90
2023/08/10 17:47:38;;;;;;;1.13;1.02;;;;;;;;;;6215450;23;20520;-91
2023/08/10 17:50:07;;;;;;;3.25;1.30;;;;;;;;;;6215181;23;20272;-91
2023/08/10 17:52:37;;;;;;;1.55;1.33;;;;;;;;;;6215168;23;20223;-91
2023/08/10 17:55:05;;;;;;;1.67;1.10;;;;;;;;;;6215123;23;20194;-91
2023/08/10 17:57:34;;;;;;;0.95;0.95;;;;;;;;;;6215018;23;20176;-90
2023/08/10 18:00:10;;;;;;;1.38;1.27;;;;;;;;;;6215122;23;20276;-91
2023/08/10 18:02:39;;;;;;;1.50;1.40;;;;;;;;;;6215117;23;20567;-90
2023/08/10 18:05:07;;;;;;;1.45;1.23;;;;;;;;;;6215168;23;20169;-90
2023/08/10 18:07:35;;;;;;;1.02;1.00;;;;;;;;;;6215388;23;20213;-91
2023/08/10 18:10:03;;;;;;;1.23;1.10;;;;;;;;;;6214985;23;20201;-90
2023/08/10 18:12:30;;;;;;;1.10;1.00;;;;;;;;;;6215018;23;20248;-91
2023/08/10 18:14:58;;;;;;;2.10;1.60;;;;;;;;;;6214819;23;20174;-91
2023/08/10 18:17:25;;;;;;;1.60;1.50;;;;;;;;;;6215212;23;20571;-91
2023/08/10 18:19:54;;;;;;;1.23;1.13;;;;;;;;;;6214925;23;20190;-91
2023/08/10 18:22:22;;;;;;;1.73;1.20;;;;;;;;;;6214889;23;20200;-91
2023/08/10 18:24:49;;;;;;;0.90;0.90;;;;;;;;;;6215342;23;20190;-91
2023/08/10 18:27:17;;;;;;;1.35;1.10;;;;;;;;;;6215114;23;20199;-90
2023/08/10 18:29:45;;;;;;;2.78;1.00;;;;;;;;;;6214954;23;20197;-91
2023/08/10 18:32:12;;;;;;;1.60;1.05;;;;;;;;;;6214878;23;20547;-91
2023/08/10 18:34:40;;;;;;;1.38;1.27;;;;;;;;;;6214727;23;20193;-91
2023/08/10 18:37:09;;;;;;;1.20;1.10;;;;;;;;;;6214713;23;20644;-90
2023/08/10 18:39:36;;;;;;;1.25;1.15;;;;;;;;;;6215137;23;20569;-90
2023/08/10 18:42:04;;;;;;;4.50;1.80;;;;;;;;;;6215339;23;20241;-90
2023/08/10 18:44:32;;;;;;;1.88;1.75;;;;;;;;;;6214813;23;20180;-91
2023/08/10 18:47:00;;;;;;;1.17;1.08;;;;;;;;;;6215202;23;20186;-90
2023/08/10 18:49:27;;;;;;;1.35;0.93;;;;;;;;;;6214913;23;20196;-90
2023/08/10 18:51:55;;;;;;;1.42;1.33;;;;;;;;;;6215428;23;20193;-90
2023/08/10 18:54:24;;;;;;;1.88;1.40;;;;;;;;;;6215001;23;20504;-90
2023/08/10 18:56:51;;;;;;;4.88;1.88;;;;;;;;;;6214837;23;20265;-91
2023/08/10 18:59:19;;;;;;;1.95;1.75;;;;;;;;;;6214633;23;20197;-90
2023/08/10 19:01:46;;;;;;;3.17;1.42;;;;;;;;;;6215158;23;20169;-90
2023/08/10 19:04:14;;;;;;;3.50;1.45;;;;;;;;;;6214685;23;20240;-90
2023/08/10 19:06:42;;;;;;;2.58;1.77;;;;;;;;;;6214893;23;20198;-90
2023/08/10 19:09:10;;;;;;;2.10;1.42;;;;;;;;;;6215067;23;20194;-91
2023/08/10 19:11:39;;;;;;;1.83;1.50;;;;;;;;;;6214850;23;20185;-90
2023/08/10 19:14:06;;;;;;;2.22;1.88;;;;;;;;;;6214843;23;20208;-90
2023/08/10 19:16:35;;;;;;;3.80;1.85;;;;;;;;;;6214794;23;20209;-91
2023/08/10 19:19:02;;;;;;;1.23;1.13;;;;;;;;;;6215088;23;20217;-90
2023/08/10 19:21:30;;;;;;;1.40;1.30;;;;;;;;;;6214986;23;20170;-90
2023/08/10 19:23:58;;;;;;;2.08;1.65;;;;;;;;;;6214926;23;20170;-90
2023/08/10 19:26:26;;;;;;;3.47;1.60;;;;;;;;;;6215539;23;20220;-89
2023/08/10 19:28:55;;;;;;;3.42;1.63;;;;;;;;;;6216402;23;20221;-91
2023/08/10 19:31:23;;;;;;;3.80;1.48;;;;;;;;;;6216492;23;20198;-90
2023/08/10 19:33:50;;;;;;;1.40;1.27;;;;;;;;;;6216799;23;20177;-91
2023/08/10 19:36:18;;;;;;;2.05;1.50;;;;;;;;;;6216512;23;20277;-90
2023/08/10 19:38:45;;;;;;;4.35;1.60;;;;;;;;;;6216387;23;20205;-90
2023/08/10 19:41:13;;;;;;;2.83;1.30;;;;;;;;;;6216393;23;20629;-90
2023/08/10 19:43:40;;;;;;;3.60;1.85;;;;;;;;;;6216277;23;20245;-90
2023/08/10 19:46:09;;;;;;;1.42;1.33;;;;;;;;;;6216902;23;20201;-90
2023/08/10 19:48:37;;;;;;;1.42;1.30;;;;;;;;;;6216277;23;20261;-90
2023/08/10 19:51:05;;;;;;;3.05;1.30;;;;;;;;;;6216307;23;20709;-90
2023/08/10 19:53:33;;;;;;;3.28;1.40;;;;;;;;;;6216460;23;20671;-91
2023/08/10 19:56:01;;;;;;;1.85;1.40;;;;;;;;;;6216361;23;20170;-90
2023/08/10 19:58:28;;;;;;;1.67;1.55;;;;;;;;;;6216411;23;20220;-90
2023/08/10 20:00:57;;;;;;;3.80;1.83;;;;;;;;;;6216405;23;20208;-90
2023/08/10 20:03:30;;;;;;;1.67;1.30;;;;;;;;;;6216136;23;20173;-90
2023/08/10 20:05:57;;;;;;;8.35;2.63;;;;;;;;;;6216246;23;20185;-90
2023/08/10 20:08:25;;;;;;;1.98;1.50;;;;;;;;;;6216855;23;20244;-90
2023/08/10 20:10:53;;;;;;;1.35;1.25;;;;;;;;;;6216108;23;20166;-90
2023/08/10 20:13:20;;;;;;;2.65;1.42;;;;;;;;;;6216299;23;20193;-90
2023/08/10 20:15:48;;;;;;;2.45;1.25;;;;;;;;;;6216409;23;20265;-90
2023/08/10 20:18:17;;;;;;;1.30;1.20;;;;;;;;;;6216423;23;20276;-90
2023/08/10 20:20:46;;;;;;;1.98;1.73;;;;;;;;;;6216613;23;20182;-90
2023/08/10 20:23:13;;;;;;;1.40;1.20;;;;;;;;;;6215979;23;20252;-90
2023/08/10 20:25:41;;;;;;;2.88;1.13;;;;;;;;;;6216018;23;20213;-89
2023/08/10 20:28:08;;;;;;;2.35;2.15;;;;;;;;;;6216121;23;20208;-90
2023/08/10 20:30:36;;;;;;;2.15;1.35;;;;;;;;;;6216109;23;20200;-90
2023/08/10 20:33:04;;;;;;;2.95;1.70;;;;;;;;;;6216005;23;20252;-90
2023/08/10 20:35:32;;;;;;;2.28;1.48;;;;;;;;;;6216023;23;20248;-90
2023/08/10 20:38:02;;;;;;;2.63;1.15;;;;;;;;;;6216138;23;20259;-90
2023/08/10 20:40:30;;;;;;;3.05;1.40;;;;;;;;;;6216908;23;20170;-89
2023/08/10 20:42:57;;;;;;;1.73;1.40;;;;;;;;;;6215429;23;20623;-89
2023/08/10 20:45:25;;;;;;;2.67;1.27;;;;;;;;;;6216188;23;20178;-90
2023/08/10 20:47:52;;;;;;;3.97;1.10;;;;;;;;;;6215791;23;20244;-90
2023/08/10 20:50:20;;;;;;;1.98;1.83;;;;;;;;;;6215416;23;20233;-89
2023/08/10 20:52:47;;;;;;;3.67;1.70;;;;;;;;;;6216148;23;20567;-90
2023/08/10 20:55:16;;;;;;;1.80;1.25;;;;;;;;;;6215878;23;20210;-90
2023/08/10 20:57:44;;;;;;;2.70;1.42;;;;;;;;;;6215596;23;20532;-90
2023/08/10 21:00:12;;;;;;;3.50;1.35;;;;;;;;;;6215587;23;20225;-90
2023/08/10 21:02:40;;;;;;;1.30;1.20;;;;;;;;;;6215699;23;20209;-90
2023/08/10 21:05:08;;;;;;;3.30;1.30;;;;;;;;;;6215715;23;20208;-90
2023/08/10 21:07:35;;;;;;;1.13;1.10;;;;;;;;;;6215689;23;20269;-90
2023/08/10 21:10:03;;;;;;;1.10;1.00;;;;;;;;;;6215586;23;20190;-89
2023/08/10 21:12:32;;;;;;;1.10;1.10;;;;;;;;;;6216005;23;20260;-90
2023/08/10 21:15:06;;;;;;;1.35;1.15;;;;;;;;;;6215619;23;20193;-90
2023/08/10 21:17:34;;;;;;;2.78;1.30;;;;;;;;;;6215518;23;20196;-89
2023/08/10 21:20:04;;;;;;;2.25;1.25;;;;;;;;;;6215665;23;20198;-89
2023/08/10 21:22:31;;;;;;;2.72;1.55;;;;;;;;;;6215297;23;20621;-90
2023/08/10 21:25:00;;;;;;;3.67;1.20;;;;;;;;;;6215533;23;20178;-89
2023/08/10 21:27:27;;;;;;;6.85;1.50;;;;;;;;;;6215388;23;20586;-89
2023/08/10 21:29:56;;;;;;;2.05;1.45;;;;;;;;;;6215371;23;20189;-90
2023/08/10 21:32:24;;;;;;;4.05;1.45;;;;;;;;;;6215425;23;20176;-89
2023/08/10 21:34:51;;;;;;;1.42;1.20;;;;;;;;;;6215369;23;20190;-89
2023/08/10 21:37:19;;;;;;;2.70;1.83;;;;;;;;;;6215567;23;20276;-89
2023/08/10 21:39:46;;;;;;;3.28;1.48;;;;;;;;;;6215499;23;20225;-89
2023/08/10 21:42:14;;;;;;;2.38;1.42;;;;;;;;;;6215524;23;20625;-89